createdAt,value
2018-03-14T00:00:18.024Z,99.99
2018-03-14T00:01:18.057Z,99.99
2018-03-14T00:02:18.088Z,99.99
2018-03-14T00:03:18.128Z,99.99
2018-03-14T00:04:18.151Z,99.99
2018-03-14T00:05:18.182Z,99.99
2018-03-14T00:06:18.216Z,99.99
2018-03-14T00:07:18.258Z,99.99
2018-03-14T00:08:18.282Z,99.99
2018-03-14T00:09:18.319Z,99.99
2018-03-14T00:10:18.397Z,99.99
2018-03-14T00:11:18.378Z,99.99
2018-03-14T00:12:18.409Z,99.99
2018-03-14T00:13:18.440Z,99.99
2018-03-14T00:14:18.475Z,99.99
2018-03-14T00:15:18.505Z,99.99
2018-03-14T00:16:18.539Z,99.99
2018-03-14T00:17:18.686Z,99.99
2018-03-14T00:18:18.602Z,99.99
2018-03-14T00:19:18.689Z,99.99
2018-03-14T00:20:18.667Z,99.99
2018-03-14T00:21:18.699Z,99.99
2018-03-14T00:22:18.732Z,99.99
2018-03-14T00:23:18.763Z,99.99
2018-03-14T00:24:18.797Z,99.99
2018-03-14T00:25:18.832Z,99.99
2018-03-14T00:26:18.859Z,99.99
2018-03-14T00:27:18.899Z,99.99
2018-03-14T00:28:18.924Z,99.99
2018-03-14T00:29:19.019Z,99.99
2018-03-14T00:30:18.991Z,99.99
2018-03-14T00:31:19.020Z,99.99
2018-03-14T00:32:19.051Z,99.99
2018-03-14T00:33:19.086Z,99.99
2018-03-14T00:34:19.116Z,99.99
2018-03-14T00:35:19.153Z,99.99
2018-03-14T00:36:19.254Z,99.99
2018-03-14T00:37:19.212Z,99.99
2018-03-14T00:38:19.246Z,99.99
2018-03-14T00:39:19.277Z,99.99
2018-03-14T00:40:19.308Z,99.99
2018-03-14T00:41:19.341Z,99.99
2018-03-14T00:42:19.373Z,99.99
2018-03-14T00:43:19.406Z,99.99
2018-03-14T00:44:19.438Z,99.99
2018-03-14T00:45:19.474Z,99.99
2018-03-14T00:46:19.517Z,99.99
2018-03-14T00:47:19.548Z,99.99
2018-03-14T00:48:19.567Z,99.99
2018-03-14T00:49:19.601Z,99.99
2018-03-14T00:50:19.639Z,99.99
2018-03-14T00:51:19.664Z,99.99
2018-03-14T00:52:19.705Z,99.99
2018-03-14T00:53:19.779Z,99.99
2018-03-14T00:54:19.760Z,99.99
2018-03-14T00:55:19.795Z,99.99
2018-03-14T00:56:19.826Z,99.99
2018-03-14T00:57:19.855Z,99.99
2018-03-14T00:58:19.889Z,99.99
2018-03-14T00:59:19.921Z,99.99
2018-03-14T01:00:20.012Z,99.99
2018-03-14T01:01:19.986Z,99.99
2018-03-14T01:02:20.019Z,99.99
2018-03-14T01:03:20.050Z,99.99
2018-03-14T01:04:20.088Z,99.99
2018-03-14T01:05:20.116Z,99.99
2018-03-14T01:06:20.147Z,99.99
2018-03-14T01:07:20.179Z,99.99
2018-03-14T01:08:20.209Z,99.99
2018-03-14T01:09:20.240Z,99.99
2018-03-14T01:10:20.277Z,99.99
2018-03-14T01:11:20.316Z,99.99
2018-03-14T01:12:20.411Z,99.99
2018-03-14T01:13:20.369Z,99.99
2018-03-14T01:14:20.402Z,99.99
2018-03-14T01:15:20.437Z,99.99
2018-03-14T01:16:20.466Z,99.99
2018-03-14T01:17:20.499Z,99.99
2018-03-14T01:18:20.532Z,99.99
2018-03-14T01:19:20.886Z,99.99
2018-03-14T01:20:20.599Z,99.99
2018-03-14T01:21:20.668Z,99.99
2018-03-14T01:22:20.660Z,99.99
2018-03-14T01:23:20.692Z,99.99
2018-03-14T01:24:20.729Z,99.99
2018-03-14T01:25:20.757Z,99.99
2018-03-14T01:26:20.788Z,99.99
2018-03-14T01:27:20.819Z,99.99
2018-03-14T01:28:20.852Z,99.99
2018-03-14T01:29:20.889Z,99.99
2018-03-14T01:30:20.919Z,99.99
2018-03-14T01:31:20.954Z,99.99
2018-03-14T01:32:20.980Z,99.99
2018-03-14T01:33:21.014Z,99.99
2018-03-14T01:34:21.048Z,99.99
2018-03-14T01:35:21.080Z,99.99
2018-03-14T01:36:21.118Z,99.99
2018-03-14T01:37:21.141Z,99.99
2018-03-14T01:38:21.176Z,99.99
2018-03-14T01:39:21.206Z,99.99
2018-03-14T01:40:21.234Z,99.99
2018-03-14T01:41:21.265Z,99.99
2018-03-14T01:42:21.323Z,99.99
2018-03-14T01:43:21.349Z,99.99
2018-03-14T01:44:21.364Z,99.99
2018-03-14T01:45:21.401Z,99.99
2018-03-14T01:46:21.426Z,99.99
2018-03-14T01:47:21.461Z,99.99
2018-03-14T01:48:21.491Z,99.99
2018-03-14T01:49:21.531Z,99.99
2018-03-14T01:50:21.580Z,99.99
2018-03-14T01:51:21.588Z,99.99
2018-03-14T01:52:21.622Z,99.99
2018-03-14T01:53:21.652Z,99.99
2018-03-14T01:54:21.682Z,99.99
2018-03-14T01:55:21.714Z,99.99
2018-03-14T01:56:21.755Z,99.99
2018-03-14T01:57:21.783Z,99.99
2018-03-14T01:58:21.814Z,99.99
2018-03-14T01:59:21.844Z,99.99
2018-03-14T02:00:21.875Z,99.99
2018-03-14T02:01:21.908Z,99.99
2018-03-14T02:02:21.960Z,99.99
2018-03-14T02:03:21.976Z,99.99
2018-03-14T02:04:22.004Z,99.99
2018-03-14T02:05:22.036Z,99.99
2018-03-14T02:06:22.070Z,99.99
2018-03-14T02:07:22.159Z,99.99
2018-03-14T02:08:22.135Z,99.99
2018-03-14T02:09:22.180Z,99.99
2018-03-14T02:10:22.199Z,99.99
2018-03-14T02:11:22.231Z,99.99
2018-03-14T02:12:22.260Z,99.99
2018-03-14T02:13:22.296Z,99.99
2018-03-14T02:14:22.326Z,99.99
2018-03-14T02:15:22.359Z,99.99
2018-03-14T02:16:22.391Z,99.99
2018-03-14T02:17:22.426Z,99.99
2018-03-14T02:18:22.454Z,99.99
2018-03-14T02:19:22.491Z,99.99
2018-03-14T02:20:22.522Z,99.99
2018-03-14T02:21:22.552Z,99.99
2018-03-14T02:22:22.586Z,99.99
2018-03-14T02:23:22.615Z,99.99
2018-03-14T02:24:22.648Z,99.99
2018-03-14T02:25:22.679Z,99.99
2018-03-14T02:26:22.740Z,99.99
2018-03-14T02:27:22.746Z,99.99
2018-03-14T02:28:22.778Z,99.99
2018-03-14T02:29:22.815Z,99.99
2018-03-14T02:30:22.841Z,99.99
2018-03-14T02:31:22.873Z,99.99
2018-03-14T02:32:22.903Z,99.99
2018-03-14T02:33:23.048Z,99.99
2018-03-14T02:34:22.984Z,99.99
2018-03-14T02:35:23.001Z,99.99
2018-03-14T02:36:23.032Z,99.99
2018-03-14T02:37:23.064Z,99.99
2018-03-14T02:38:23.098Z,99.99
2018-03-14T02:39:23.132Z,99.99
2018-03-14T02:40:23.160Z,99.99
2018-03-14T02:41:23.194Z,99.99
2018-03-14T02:42:23.224Z,99.99
2018-03-14T02:43:23.259Z,99.99
2018-03-14T02:44:23.290Z,99.99
2018-03-14T02:45:23.324Z,99.99
2018-03-14T02:46:23.355Z,99.99
2018-03-14T02:47:23.390Z,99.99
2018-03-14T02:48:23.421Z,99.99
2018-03-14T02:49:23.451Z,99.99
2018-03-14T02:50:23.488Z,99.99
2018-03-14T02:51:23.520Z,99.99
2018-03-14T02:52:23.546Z,99.99
2018-03-14T02:53:23.581Z,99.99
2018-03-14T02:54:23.616Z,99.99
2018-03-14T02:55:23.643Z,99.99
2018-03-14T02:56:23.677Z,99.99
2018-03-14T02:57:23.744Z,99.99
2018-03-14T02:58:23.741Z,99.99
2018-03-14T02:59:23.774Z,99.99
2018-03-14T03:00:23.803Z,99.99
2018-03-14T03:01:23.836Z,99.99
2018-03-14T03:02:23.869Z,99.99
2018-03-14T03:03:23.902Z,99.99
2018-03-14T03:04:23.933Z,99.99
2018-03-14T03:05:23.968Z,99.99
2018-03-14T03:06:23.998Z,99.99
2018-03-14T03:07:24.040Z,99.99
2018-03-14T03:08:24.062Z,99.99
2018-03-14T03:09:24.094Z,99.99
2018-03-14T03:10:24.125Z,99.99
2018-03-14T03:11:24.157Z,99.99
2018-03-14T03:12:24.197Z,99.99
2018-03-14T03:13:24.223Z,99.99
2018-03-14T03:14:24.256Z,99.99
2018-03-14T03:15:24.285Z,99.99
2018-03-14T03:16:24.332Z,99.99
2018-03-14T03:17:24.354Z,99.99
2018-03-14T03:18:24.388Z,99.99
2018-03-14T03:19:24.417Z,99.99
2018-03-14T03:20:24.450Z,99.99
2018-03-14T03:21:24.480Z,99.99
2018-03-14T03:22:24.518Z,99.99
2018-03-14T03:23:24.657Z,99.99
2018-03-14T03:24:24.577Z,99.99
2018-03-14T03:25:24.611Z,99.99
2018-03-14T03:26:24.641Z,99.99
2018-03-14T03:27:24.675Z,99.99
2018-03-14T03:28:24.706Z,99.99
2018-03-14T03:29:24.738Z,99.99
2018-03-14T03:30:24.770Z,99.99
2018-03-14T03:31:24.808Z,99.99
2018-03-14T03:32:24.835Z,99.99
2018-03-14T03:33:24.883Z,99.99
2018-03-14T03:34:24.899Z,99.99
2018-03-14T03:35:24.933Z,99.99
2018-03-14T03:36:24.976Z,99.99
2018-03-14T03:37:24.997Z,99.99
2018-03-14T03:38:25.028Z,99.99
2018-03-14T03:39:25.062Z,99.99
2018-03-14T03:40:25.151Z,99.99
2018-03-14T03:41:25.128Z,99.99
2018-03-14T03:42:25.156Z,99.91
2018-03-14T03:43:25.190Z,99.99
2018-03-14T03:44:25.225Z,99.99
2018-03-14T03:45:25.253Z,99.99
2018-03-14T03:46:25.288Z,99.63
2018-03-14T03:47:25.337Z,99.63
2018-03-14T03:48:25.350Z,99.73
2018-03-14T03:49:25.383Z,99.73
2018-03-14T03:50:25.419Z,99.99
2018-03-14T03:51:25.449Z,99.99
2018-03-14T03:52:25.479Z,99.99
2018-03-14T03:53:25.511Z,99.73
2018-03-14T03:54:25.548Z,99.63
2018-03-14T03:55:25.577Z,99.99
2018-03-14T03:56:25.609Z,99.91
2018-03-14T03:57:25.645Z,99.63
2018-03-14T03:58:25.675Z,99.35
2018-03-14T03:59:25.726Z,99.44
2018-03-14T04:00:25.739Z,99.44
2018-03-14T04:01:25.770Z,99.91
2018-03-14T04:02:25.803Z,99.99
2018-03-14T04:03:25.840Z,99.63
2018-03-14T04:04:25.872Z,99.82
2018-03-14T04:05:25.901Z,99.26
2018-03-14T04:06:25.949Z,99.44
2018-03-14T04:07:25.964Z,99.44
2018-03-14T04:08:26.003Z,99.82
2018-03-14T04:09:26.031Z,99.44
2018-03-14T04:10:26.066Z,99.82
2018-03-14T04:11:26.103Z,99.63
2018-03-14T04:12:26.127Z,99.44
2018-03-14T04:13:26.165Z,99.99
2018-03-14T04:14:26.195Z,99.99
2018-03-14T04:15:26.227Z,99.99
2018-03-14T04:16:26.255Z,99.99
2018-03-14T04:17:26.287Z,99.54
2018-03-14T04:18:26.322Z,99.99
2018-03-14T04:19:26.352Z,99.99
2018-03-14T04:20:26.383Z,99.99
2018-03-14T04:21:26.414Z,99.99
2018-03-14T04:22:26.448Z,99.99
2018-03-14T04:23:26.486Z,99.99
2018-03-14T04:24:26.512Z,99.99
2018-03-14T04:25:26.545Z,99.54
2018-03-14T04:26:26.579Z,99.16
2018-03-14T04:27:26.607Z,98.68
2018-03-14T04:28:26.643Z,98.40
2018-03-14T04:29:26.675Z,99.26
2018-03-14T04:30:26.705Z,99.26
2018-03-14T04:31:26.740Z,98.78
2018-03-14T04:32:26.775Z,98.78
2018-03-14T04:33:26.803Z,99.16
2018-03-14T04:34:26.836Z,98.87
2018-03-14T04:35:26.868Z,98.68
2018-03-14T04:36:26.900Z,98.87
2018-03-14T04:37:26.933Z,99.44
2018-03-14T04:38:26.965Z,99.99
2018-03-14T04:39:26.998Z,99.44
2018-03-14T04:40:27.039Z,99.44
2018-03-14T04:41:27.066Z,99.35
2018-03-14T04:42:27.111Z,99.26
2018-03-14T04:43:27.127Z,99.26
2018-03-14T04:44:27.162Z,98.40
2018-03-14T04:45:27.192Z,98.78
2018-03-14T04:46:27.228Z,98.59
2018-03-14T04:47:27.264Z,98.78
2018-03-14T04:48:27.289Z,99.16
2018-03-14T04:49:27.321Z,98.68
2018-03-14T04:50:27.356Z,98.87
2018-03-14T04:51:27.390Z,98.87
2018-03-14T04:52:27.416Z,98.87
2018-03-14T04:53:27.450Z,98.68
2018-03-14T04:54:27.487Z,98.59
2018-03-14T04:55:27.517Z,99.06
2018-03-14T04:56:27.548Z,98.78
2018-03-14T04:57:27.580Z,99.44
2018-03-14T04:58:27.613Z,98.78
2018-03-14T04:59:27.696Z,98.78
2018-03-14T05:00:27.681Z,98.68
2018-03-14T05:01:27.711Z,98.68
2018-03-14T05:02:27.740Z,98.59
2018-03-14T05:03:27.777Z,98.68
2018-03-14T05:04:27.807Z,98.49
2018-03-14T05:05:27.850Z,98.87
2018-03-14T05:06:27.881Z,99.26
2018-03-14T05:07:27.911Z,99.26
2018-03-14T05:08:27.939Z,99.44
2018-03-14T05:09:27.969Z,98.87
2018-03-14T05:10:28.001Z,99.26
2018-03-14T05:11:28.036Z,98.87
2018-03-14T05:12:28.075Z,99.16
2018-03-14T05:13:28.128Z,98.68
2018-03-14T05:14:28.139Z,98.97
2018-03-14T05:15:28.166Z,98.78
2018-03-14T05:16:28.195Z,98.97
2018-03-14T05:17:28.232Z,98.11
2018-03-14T05:18:28.261Z,98.49
2018-03-14T05:19:28.296Z,98.78
2018-03-14T05:20:28.414Z,98.11
2018-03-14T05:21:28.363Z,98.40
2018-03-14T05:22:28.406Z,98.40
2018-03-14T05:23:28.423Z,99.16
2018-03-14T05:24:28.455Z,98.49
2018-03-14T05:25:28.491Z,98.87
2018-03-14T05:26:28.521Z,99.26
2018-03-14T05:27:28.555Z,99.73
2018-03-14T05:28:28.585Z,99.63
2018-03-14T05:29:28.621Z,99.63
2018-03-14T05:30:28.652Z,99.73
2018-03-14T05:31:28.683Z,99.99
2018-03-14T05:32:28.716Z,99.73
2018-03-14T05:33:28.747Z,99.99
2018-03-14T05:34:28.783Z,99.99
2018-03-14T05:35:28.812Z,99.99
2018-03-14T05:36:28.842Z,99.99
2018-03-14T05:37:28.875Z,99.99
2018-03-14T05:38:28.913Z,99.99
2018-03-14T05:39:28.944Z,99.99
2018-03-14T05:40:28.972Z,99.99
2018-03-14T05:41:29.007Z,99.99
2018-03-14T05:42:29.038Z,99.99
2018-03-14T05:43:29.074Z,99.99
2018-03-14T05:44:29.106Z,99.99
2018-03-14T05:45:29.136Z,99.99
2018-03-14T05:46:29.174Z,99.99
2018-03-14T05:47:29.204Z,99.99
2018-03-14T05:48:29.234Z,99.99
2018-03-14T05:49:29.275Z,99.99
2018-03-14T05:50:29.298Z,99.99
2018-03-14T05:51:29.330Z,99.99
2018-03-14T05:52:29.367Z,99.99
2018-03-14T05:53:29.395Z,99.99
2018-03-14T05:54:29.429Z,99.99
2018-03-14T05:55:29.459Z,99.99
2018-03-14T05:56:29.566Z,99.99
2018-03-14T05:57:29.522Z,99.99
2018-03-14T05:58:29.557Z,99.99
2018-03-14T05:59:29.608Z,99.99
2018-03-14T06:00:29.625Z,99.99
2018-03-14T06:01:29.651Z,99.99
2018-03-14T06:02:29.686Z,99.99
2018-03-14T06:03:29.813Z,99.99
2018-03-14T06:04:29.750Z,99.99
2018-03-14T06:05:29.779Z,99.99
2018-03-14T06:06:29.812Z,99.99
2018-03-14T06:07:29.847Z,99.99
2018-03-14T06:08:29.876Z,99.99
2018-03-14T06:09:29.906Z,99.99
2018-03-14T06:10:29.945Z,99.99
2018-03-14T06:11:29.970Z,99.99
2018-03-14T06:12:30.002Z,99.99
2018-03-14T06:13:30.039Z,99.99
2018-03-14T06:14:30.068Z,99.99
2018-03-14T06:15:30.097Z,99.99
2018-03-14T06:16:30.130Z,99.99
2018-03-14T06:17:30.168Z,99.99
2018-03-14T06:18:30.193Z,99.99
2018-03-14T06:19:30.227Z,99.99
2018-03-14T06:20:30.261Z,99.99
2018-03-14T06:21:30.292Z,99.99
2018-03-14T06:22:30.324Z,99.99
2018-03-14T06:23:30.354Z,99.99
2018-03-14T06:24:30.384Z,99.99
2018-03-14T06:25:30.419Z,99.99
2018-03-14T06:26:30.455Z,99.99
2018-03-14T06:27:30.535Z,99.99
2018-03-14T06:28:30.513Z,99.99
2018-03-14T06:29:30.560Z,99.99
2018-03-14T06:30:30.581Z,99.99
2018-03-14T06:31:30.611Z,99.99
2018-03-14T06:32:30.645Z,99.99
2018-03-14T06:33:30.683Z,99.99
2018-03-14T06:34:30.705Z,99.99
2018-03-14T06:35:30.740Z,99.99
2018-03-14T06:36:30.773Z,99.99
2018-03-14T06:37:30.803Z,99.99
2018-03-14T06:38:30.834Z,99.99
2018-03-14T06:39:30.879Z,99.99
2018-03-14T06:40:30.898Z,99.99
2018-03-14T06:41:30.927Z,99.99
2018-03-14T06:42:30.960Z,99.99
2018-03-14T06:43:30.992Z,99.99
2018-03-14T06:44:31.031Z,99.99
2018-03-14T06:45:31.054Z,99.99
2018-03-14T06:46:31.191Z,99.99
2018-03-14T06:47:31.126Z,99.99
2018-03-14T06:48:31.152Z,99.99
2018-03-14T06:49:31.183Z,99.99
2018-03-14T06:50:31.212Z,99.99
2018-03-14T06:51:31.248Z,99.99
2018-03-14T06:52:31.289Z,99.99
2018-03-14T06:53:31.333Z,99.99
2018-03-14T06:54:31.343Z,99.99
2018-03-14T06:55:31.374Z,99.99
2018-03-14T06:56:31.408Z,99.99
2018-03-14T06:57:31.437Z,99.99
2018-03-14T06:58:31.469Z,99.99
2018-03-14T06:59:31.505Z,99.99
2018-03-14T07:00:31.535Z,99.99
2018-03-14T07:01:31.571Z,99.99
2018-03-14T07:02:31.595Z,99.99
2018-03-14T07:03:31.629Z,99.99
2018-03-14T07:04:31.662Z,99.99
2018-03-14T07:05:31.696Z,99.99
2018-03-14T07:06:31.725Z,99.99
2018-03-14T07:07:31.758Z,99.99
2018-03-14T07:08:31.789Z,99.99
2018-03-14T07:09:31.820Z,99.99
2018-03-14T07:10:31.861Z,99.99
2018-03-14T07:11:31.888Z,99.99
2018-03-14T07:12:31.916Z,99.99
2018-03-14T07:13:31.949Z,99.99
2018-03-14T07:14:31.982Z,99.99
2018-03-14T07:15:32.013Z,99.99
2018-03-14T07:16:32.043Z,99.99
2018-03-14T07:17:32.091Z,99.99
2018-03-14T07:18:32.109Z,99.99
2018-03-14T07:19:32.141Z,99.99
2018-03-14T07:20:32.173Z,99.99
2018-03-14T07:21:32.211Z,99.99
2018-03-14T07:22:32.238Z,99.99
2018-03-14T07:23:32.270Z,99.99
2018-03-14T07:24:32.303Z,99.99
2018-03-14T07:25:32.333Z,99.99
2018-03-14T07:26:32.368Z,99.99
2018-03-14T07:27:32.399Z,99.99
2018-03-14T07:28:32.485Z,99.99
2018-03-14T07:29:32.468Z,99.68
2018-03-14T07:30:32.498Z,99.68
2018-03-14T07:31:32.528Z,97.60
2018-03-14T07:32:32.559Z,96.64
2018-03-14T07:33:32.608Z,96.17
2018-03-14T07:34:32.628Z,96.83
2018-03-14T07:35:32.660Z,97.02
2018-03-14T07:36:32.736Z,97.22
2018-03-14T07:37:32.721Z,97.78
2018-03-14T07:38:32.756Z,98.54
2018-03-14T07:39:32.789Z,98.64
2018-03-14T07:40:32.820Z,97.97
2018-03-14T07:41:32.853Z,96.93
2018-03-14T07:42:32.892Z,96.17
2018-03-14T07:43:32.921Z,96.55
2018-03-14T07:44:32.953Z,97.02
2018-03-14T07:45:32.986Z,98.07
2018-03-14T07:46:33.022Z,97.97
2018-03-14T07:47:33.055Z,97.02
2018-03-14T07:48:33.084Z,96.08
2018-03-14T07:49:33.115Z,96.64
2018-03-14T07:50:33.151Z,96.55
2018-03-14T07:51:33.184Z,96.69
2018-03-14T07:52:33.260Z,97.36
2018-03-14T07:53:33.251Z,97.60
2018-03-14T07:54:33.282Z,97.83
2018-03-14T07:55:33.314Z,97.69
2018-03-14T07:56:33.347Z,98.16
2018-03-14T07:57:33.378Z,97.74
2018-03-14T07:58:33.412Z,98.35
2018-03-14T07:59:33.442Z,98.07
2018-03-14T08:00:33.505Z,98.45
2018-03-14T08:01:33.509Z,97.78
2018-03-14T08:02:33.543Z,97.97
2018-03-14T08:03:33.576Z,97.12
2018-03-14T08:04:33.607Z,98.16
2018-03-14T08:05:33.638Z,97.78
2018-03-14T08:06:33.673Z,98.16
2018-03-14T08:07:33.776Z,97.69
2018-03-14T08:08:33.740Z,98.45
2018-03-14T08:09:33.773Z,96.93
2018-03-14T08:10:33.806Z,96.36
2018-03-14T08:11:33.836Z,96.74
2018-03-14T08:12:33.869Z,96.45
2018-03-14T08:13:34.060Z,96.45
2018-03-14T08:14:33.934Z,96.74
2018-03-14T08:15:33.970Z,96.83
2018-03-14T08:16:33.999Z,96.74
2018-03-14T08:17:34.035Z,98.07
2018-03-14T08:18:34.065Z,97.41
2018-03-14T08:19:34.097Z,96.26
2018-03-14T08:20:34.131Z,96.45
2018-03-14T08:21:34.166Z,97.41
2018-03-14T08:22:34.205Z,96.83
2018-03-14T08:23:34.231Z,96.55
2018-03-14T08:24:34.269Z,96.55
2018-03-14T08:25:34.304Z,96.41
2018-03-14T08:26:34.462Z,95.84
2018-03-14T08:27:34.363Z,96.12
2018-03-14T08:28:34.396Z,95.94
2018-03-14T08:29:34.427Z,94.98
2018-03-14T08:30:34.461Z,95.27
2018-03-14T08:31:34.497Z,94.79
2018-03-14T08:32:34.529Z,92.71
2018-03-14T08:33:34.559Z,92.80
2018-03-14T08:34:34.592Z,92.90
2018-03-14T08:35:34.626Z,93.27
2018-03-14T08:36:34.674Z,92.71
2018-03-14T08:37:34.693Z,92.42
2018-03-14T08:38:34.727Z,92.23
2018-03-14T08:39:34.762Z,92.42
2018-03-14T08:40:34.794Z,93.27
2018-03-14T08:41:34.883Z,93.41
2018-03-14T08:42:34.859Z,92.04
2018-03-14T08:43:34.945Z,90.90
2018-03-14T08:44:34.929Z,90.14
2018-03-14T08:45:34.964Z,89.76
2018-03-14T08:46:34.991Z,90.14
2018-03-14T08:47:35.032Z,90.85
2018-03-14T08:48:35.058Z,91.33
2018-03-14T08:49:35.095Z,90.85
2018-03-14T08:50:35.246Z,90.85
2018-03-14T08:51:35.163Z,90.37
2018-03-14T08:52:35.209Z,90.75
2018-03-14T08:53:35.225Z,91.13
2018-03-14T08:54:35.260Z,89.90
2018-03-14T08:55:35.292Z,90.19
2018-03-14T08:56:35.330Z,89.52
2018-03-14T08:57:35.360Z,90.19
2018-03-14T08:58:35.395Z,89.71
2018-03-14T08:59:35.431Z,89.90
2018-03-14T09:00:35.463Z,90.00
2018-03-14T09:01:35.494Z,89.42
2018-03-14T09:02:35.547Z,89.42
2018-03-14T09:03:35.717Z,90.09
2018-03-14T09:04:35.597Z,89.42
2018-03-14T09:05:35.632Z,88.67
2018-03-14T09:06:35.666Z,88.38
2018-03-14T09:07:35.703Z,88.00
2018-03-14T09:08:35.733Z,88.19
2018-03-14T09:09:35.767Z,88.52
2018-03-14T09:10:35.802Z,88.67
2018-03-14T09:11:35.832Z,88.57
2018-03-14T09:12:35.868Z,89.37
2018-03-14T09:13:35.917Z,89.47
2018-03-14T09:14:35.934Z,89.47
2018-03-14T09:15:35.967Z,88.52
2018-03-14T09:16:36.003Z,88.04
2018-03-14T09:17:36.046Z,88.13
2018-03-14T09:18:36.073Z,87.19
2018-03-14T09:19:36.104Z,87.85
2018-03-14T09:20:36.138Z,87.76
2018-03-14T09:21:36.174Z,87.28
2018-03-14T09:22:36.209Z,86.80
2018-03-14T09:23:36.263Z,86.80
2018-03-14T09:24:36.280Z,86.33
2018-03-14T09:25:36.315Z,86.76
2018-03-14T09:26:36.360Z,87.23
2018-03-14T09:27:36.390Z,87.13
2018-03-14T09:28:36.417Z,87.32
2018-03-14T09:29:36.450Z,86.94
2018-03-14T09:30:36.484Z,86.57
2018-03-14T09:31:36.539Z,84.56
2018-03-14T09:32:36.555Z,84.09
2018-03-14T09:33:36.584Z,84.00
2018-03-14T09:34:36.625Z,83.94
2018-03-14T09:35:36.658Z,83.52
2018-03-14T09:36:36.695Z,83.62
2018-03-14T09:37:36.725Z,84.19
2018-03-14T09:38:36.760Z,83.71
2018-03-14T09:39:36.801Z,83.90
2018-03-14T09:40:36.857Z,84.28
2018-03-14T09:41:36.872Z,83.62
2018-03-14T09:42:36.904Z,84.19
2018-03-14T09:43:36.939Z,84.00
2018-03-14T09:44:36.970Z,84.19
2018-03-14T09:45:37.006Z,84.76
2018-03-14T09:46:37.039Z,84.38
2018-03-14T09:47:37.177Z,85.52
2018-03-14T09:48:37.113Z,84.76
2018-03-14T09:49:37.146Z,84.61
2018-03-14T09:50:37.181Z,84.04
2018-03-14T09:51:37.214Z,83.56
2018-03-14T09:52:37.248Z,84.04
2018-03-14T09:53:37.283Z,83.28
2018-03-14T09:54:37.317Z,82.99
2018-03-14T09:55:37.356Z,81.66
2018-03-14T09:56:37.387Z,82.14
2018-03-14T09:57:37.473Z,82.99
2018-03-14T09:58:37.459Z,82.61
2018-03-14T09:59:37.504Z,83.51
2018-03-14T10:00:37.529Z,83.98
2018-03-14T10:01:37.603Z,83.61
2018-03-14T10:02:37.601Z,82.65
2018-03-14T10:03:37.638Z,82.65
2018-03-14T10:04:37.670Z,81.98
2018-03-14T10:05:37.725Z,81.51
2018-03-14T10:06:37.750Z,80.36
2018-03-14T10:07:37.778Z,78.69
2018-03-14T10:08:37.815Z,78.41
2018-03-14T10:09:37.851Z,78.50
2018-03-14T10:10:37.885Z,79.07
2018-03-14T10:11:37.920Z,79.74
2018-03-14T10:12:37.955Z,78.50
2018-03-14T10:13:37.994Z,76.88
2018-03-14T10:14:38.030Z,76.79
2018-03-14T10:15:38.070Z,77.17
2018-03-14T10:16:38.103Z,76.88
2018-03-14T10:17:38.135Z,77.17
2018-03-14T10:18:38.174Z,77.93
2018-03-14T10:19:38.209Z,76.98
2018-03-14T10:20:38.245Z,77.07
2018-03-14T10:21:38.280Z,76.98
2018-03-14T10:22:38.318Z,77.07
2018-03-14T10:23:38.457Z,76.31
2018-03-14T10:24:38.392Z,75.78
2018-03-14T10:25:38.510Z,75.40
2018-03-14T10:26:38.462Z,74.73
2018-03-14T10:27:38.497Z,73.74
2018-03-14T10:28:38.533Z,73.65
2018-03-14T10:29:38.572Z,74.50
2018-03-14T10:30:38.668Z,75.64
2018-03-14T10:31:38.645Z,76.12
2018-03-14T10:32:38.679Z,76.69
2018-03-14T10:33:38.715Z,76.31
2018-03-14T10:34:38.766Z,75.74
2018-03-14T10:35:38.793Z,74.12
2018-03-14T10:36:38.827Z,75.60
2018-03-14T10:37:39.014Z,76.18
2018-03-14T10:38:38.898Z,76.90
2018-03-14T10:39:38.941Z,77.19
2018-03-14T10:40:38.973Z,77.66
2018-03-14T10:41:39.005Z,78.57
2018-03-14T10:42:39.045Z,79.43
2018-03-14T10:43:39.084Z,80.00
2018-03-14T10:44:39.115Z,81.33
2018-03-14T10:45:39.152Z,80.29
2018-03-14T10:46:39.190Z,80.04
2018-03-14T10:47:39.228Z,79.57
2018-03-14T10:48:39.266Z,79.47
2018-03-14T10:49:39.295Z,78.52
2018-03-14T10:50:39.331Z,78.61
2018-03-14T10:51:39.375Z,78.61
2018-03-14T10:52:39.407Z,78.19
2018-03-14T10:53:39.439Z,79.43
2018-03-14T10:54:39.477Z,79.24
2018-03-14T10:55:39.519Z,77.62
2018-03-14T10:56:39.606Z,78.29
2018-03-14T10:57:39.581Z,78.57
2018-03-14T10:58:39.653Z,79.43
2018-03-14T10:59:39.652Z,81.14
2018-03-14T11:00:39.688Z,81.14
2018-03-14T11:01:39.723Z,81.05
2018-03-14T11:02:39.759Z,79.52
2018-03-14T11:03:39.898Z,79.81
2018-03-14T11:04:39.828Z,79.47
2018-03-14T11:05:39.862Z,78.33
2018-03-14T11:06:39.898Z,78.52
2018-03-14T11:07:39.933Z,78.71
2018-03-14T11:08:39.974Z,79.94
2018-03-14T11:09:40.049Z,78.37
2018-03-14T11:10:40.041Z,77.70
2018-03-14T11:11:40.078Z,77.03
2018-03-14T11:12:40.111Z,75.60
2018-03-14T11:13:40.155Z,75.23
2018-03-14T11:14:40.185Z,75.16
2018-03-14T11:15:40.218Z,75.07
2018-03-14T11:16:40.251Z,75.16
2018-03-14T11:17:40.290Z,74.98
2018-03-14T11:18:40.325Z,73.93
2018-03-14T11:19:40.360Z,74.02
2018-03-14T11:20:40.395Z,75.36
2018-03-14T11:21:40.446Z,75.84
2018-03-14T11:22:40.477Z,75.64
2018-03-14T11:23:40.507Z,74.88
2018-03-14T11:24:40.541Z,74.60
2018-03-14T11:25:40.576Z,74.02
2018-03-14T11:26:40.618Z,74.69
2018-03-14T11:27:40.685Z,75.16
2018-03-14T11:28:40.683Z,75.26
2018-03-14T11:29:40.720Z,74.27
2018-03-14T11:30:40.756Z,73.70
2018-03-14T11:31:40.793Z,74.84
2018-03-14T11:32:40.831Z,74.37
2018-03-14T11:33:40.864Z,74.46
2018-03-14T11:34:40.962Z,75.42
2018-03-14T11:35:40.945Z,75.55
2018-03-14T11:36:40.985Z,75.36
2018-03-14T11:37:41.015Z,75.55
2018-03-14T11:38:41.047Z,74.02
2018-03-14T11:39:41.084Z,74.50
2018-03-14T11:40:41.116Z,73.93
2018-03-14T11:41:41.208Z,73.26
2018-03-14T11:42:41.200Z,73.55
2018-03-14T11:43:41.226Z,73.45
2018-03-14T11:44:41.265Z,73.83
2018-03-14T11:45:41.297Z,74.60
2018-03-14T11:46:41.333Z,73.65
2018-03-14T11:47:41.372Z,73.36
2018-03-14T11:48:41.408Z,74.02
2018-03-14T11:49:41.448Z,73.07
2018-03-14T11:50:41.481Z,73.26
2018-03-14T11:51:41.520Z,73.93
2018-03-14T11:52:41.564Z,74.60
2018-03-14T11:53:41.588Z,74.31
2018-03-14T11:54:41.625Z,73.83
2018-03-14T11:55:41.680Z,74.88
2018-03-14T11:56:41.697Z,74.54
2018-03-14T11:57:41.734Z,74.06
2018-03-14T11:58:41.770Z,74.06
2018-03-14T11:59:41.804Z,73.30
2018-03-14T12:00:41.851Z,71.30
2018-03-14T12:01:41.880Z,71.30
2018-03-14T12:02:41.922Z,71.52
2018-03-14T12:03:41.955Z,71.39
2018-03-14T12:04:41.986Z,70.25
2018-03-14T12:05:42.025Z,70.53
2018-03-14T12:06:42.069Z,70.19
2018-03-14T12:07:42.112Z,69.77
2018-03-14T12:08:42.136Z,69.77
2018-03-14T12:09:42.182Z,70.53
2018-03-14T12:10:42.210Z,70.72
2018-03-14T12:11:42.245Z,71.39
2018-03-14T12:12:42.280Z,71.52
2018-03-14T12:13:42.319Z,71.14
2018-03-14T12:14:42.561Z,69.90
2018-03-14T12:15:42.517Z,69.62
2018-03-14T12:16:42.430Z,69.81
2018-03-14T12:17:42.468Z,69.62
2018-03-14T12:18:42.506Z,69.62
2018-03-14T12:19:42.539Z,70.19
2018-03-14T12:20:42.579Z,69.04
2018-03-14T12:21:42.625Z,69.43
2018-03-14T12:22:42.654Z,69.71
2018-03-14T12:23:42.687Z,69.33
2018-03-14T12:24:42.730Z,69.90
2018-03-14T12:25:42.767Z,70.38
2018-03-14T12:26:42.801Z,70.38
2018-03-14T12:27:42.840Z,70.76
2018-03-14T12:28:42.872Z,69.81
2018-03-14T12:29:42.911Z,69.23
2018-03-14T12:30:42.949Z,68.28
2018-03-14T12:31:42.987Z,68.38
2018-03-14T12:32:43.023Z,67.71
2018-03-14T12:33:43.060Z,68.18
2018-03-14T12:34:43.122Z,69.62
2018-03-14T12:35:43.134Z,69.52
2018-03-14T12:36:43.170Z,69.43
2018-03-14T12:37:43.210Z,70.57
2018-03-14T12:38:43.244Z,70.25
2018-03-14T12:39:43.279Z,70.72
2018-03-14T12:40:43.356Z,71.96
2018-03-14T12:41:43.363Z,72.72
2018-03-14T12:42:43.393Z,72.34
2018-03-14T12:43:43.466Z,71.83
2018-03-14T12:44:43.470Z,71.36
2018-03-14T12:45:43.512Z,70.31
2018-03-14T12:46:43.548Z,70.88
2018-03-14T12:47:43.596Z,72.31
2018-03-14T12:48:43.614Z,73.03
2018-03-14T12:49:43.651Z,73.99
2018-03-14T12:50:43.692Z,73.89
2018-03-14T12:51:43.724Z,73.74
2018-03-14T12:52:43.763Z,74.75